x

Portland 12 Nm Southeast Of Portland,me (44007) Wave Buoy

8:50 - Wed 24th Dec 2014 All times are EST. -5 hours from GMT.

  • Sig Wave height 3.9ft
  • Swell Direction
  • Peak Period 8s
  • Average Period 6s
  • Wind
    13mph, 16mph gusts
  • Sea Temp 43°f
  • Ar Temp 39°f
  • Sea Pressure 1005.1mb
  • Portland 12 Nm Southeast Of Portland,me
  • Portland 12 Nm Southeast Of Portland,me

More Historic Weather Station data

Upgrade to MSW Pro to gain access to the past 30 days of data for over 8000 Wavebouys and Weather Stations around the globe.

Join Pro

Comparision Forecast

View Surf forecast
   
Qua 12/24 8:50 4ft 8s 6s 13 16 mph 1005.1mb 43f 39f
7:50 4ft 8s 6s 16 18 mph 1006.9mb 43f 40f
6:50 4.5ft 8s 6s 16 18 mph 1008.3mb 43f 40f
5:50 4.5ft 8s 6s 13 18 mph 1009mb 43f 40f
4:50 4.5ft 9s 5s 16
mph
1010.3mb 44f 40f
3:50 4ft 7s 5s 16 20 mph 1011.1mb 44f 40f
2:50 4.5ft 8s 5s 18 20 mph 1012.5mb 44f 40f
1:50 5ft 8s 6s 13 16 mph 1013.4mb 44f 40f
12:50 5ft 8s 5s 13 16 mph 1014.2mb 44f 40f
11:50 5ft 8s 5s 16 18 mph 1016.3mb 44f 39f
10:50 5ft 8s 6s 16 18 mph 1017.4mb 44f 39f
9:50 5.5ft 8s 6s 16 18 mph 1018.3mb 44f 40f
8:50 6ft 8s 6s 16 18 mph 1018.9mb 44f 39f
7:50 5ft 8s 6s 16 20 mph 1020.2mb 43f 39f
6:50 5ft 9s 6s 18 22 mph 1020.5mb 44f 39f
5:50 6ft 8s 6s 18 20 mph 1020.7mb 44f 38f
4:50 6ft 9s 6s 16 20 mph 1021mb 44f 39f
3:50 5.5ft 8s 6s 18 20 mph 1020.9mb 44f 39f
2:50 5.5ft 8s 6s 20 22 mph 1021.3mb 44f 39f
1:50 6ft 8s 6s 20 22 mph 1022mb 44f 38f
12:50 6ft 8s 6s 16 20 mph 1022.3mb 44f 39f
Ter 12/23 11:50 6ft 8s 6s 18 20 mph 1022.4mb 44f 39f
10:50 7ft 8s 6s 18 20 mph 1022.8mb 44f 39f
9:50 7ft 8s 6s 18 22 mph 1023mb 44f 39f
8:50 6ft 8s 6s 18 22 mph 1023.6mb 44f 39f
7:50 7ft 8s 6s 18 22 mph 1023.7mb 44f 39f
6:50 6.5ft 8s 6s 20 22 mph 1023.6mb 44f 39f
5:50 6.5ft 8s 6s 20 25 mph 1024mb 44f 39f
4:50 7ft 8s 6s 16 18 mph 1024.1mb 45f 42f
3:50 6.5ft 8s 6s 16 18 mph 1024.3mb 45f 43f
2:50 7ft 8s 6s 18 22 mph 1023.7mb 45f 43f
1:50 6ft 8s 6s 20 22 mph 1023.8mb 45f 43f
12:50 6.5ft 8s 6s 18 22 mph 1023.9mb 45f 43f
11:50 7ft 8s 6s 20 22 mph 1024.5mb 45f 42f
10:50 7ft 8s 6s 22 25 mph 1025.6mb 45f 42f
9:50 6ft 8s 5s 22 27 mph 1026.6mb 45f 42f
8:50 6ft 7s 5s 22 27 mph 1026.4mb 44f 42f
7:50 6ft 7s 5s 20 25 mph 1027.2mb 44f 42f
6:50 5.5ft 8s 5s 18 22 mph 1027.3mb 44f 42f
5:50 5ft 6s 5s 22 27 mph 1025.7mb 44f 42f
4:50 4.5ft 6s 5s 20 25 mph 1026.2mb 44f 42f
3:50 4ft 6s 5s 16 18 mph 1026.6mb 44f 43f
2:50 4ft 6s 5s 16 20 mph 1026.7mb 44f 44f
1:50 4.5ft 6s 5s 16 18 mph 1027mb 44f 43f
12:50 4ft 6s 5s 16 20 mph 1026.5mb 44f 43f
Seg 12/22 11:50 4ft 6s 5s 18 22 mph 1026.4mb 44f 43f
10:50 3.5ft 6s 5s 16 22 mph 1026.9mb 44f 44f
9:50 3.5ft 7s 5s 18 20 mph 1027mb 44f 43f
8:50 3.5ft 7s 5s 13 16 mph 1027.8mb 44f 40f
7:50 3ft 8s 4s 18 20 mph 1027.7mb 44f 40f
6:50 3ft 7s 4s 16 18 mph 1028.5mb 44f 40f
5:50 3ft 8s 4s 16 18 mph 1028.2mb 44f 40f
4:50 3ft 8s 4s 18 20 mph 1027.7mb 43f 40f
3:50 2.5ft 8s 4s 18 22 mph 1027.8mb 43f 40f
2:50 2.5ft 6s 4s 13 16 mph 1028.3mb 43f 40f
1:50 2.5ft 6s 4s 11 13 mph 1028.2mb 43f 39f
12:50 2.5ft 6s 5s 13
mph
1027.8mb 43f 38f
11:50 2.5ft 6s 5s 13
mph
1028.2mb 43f 37f
10:50 2.5ft 6s 5s 11 13 mph 1029.3mb 42f 36f
9:50 2.5ft 7s 5s 13 16 mph 1029.7mb 42f 35f
8:50 2.5ft 7s 5s 13 16 mph 1029.8mb 42f 34f
7:50 2.5ft 7s 5s 13 16 mph 1029.5mb 42f 33f
6:50 2.5ft 8s 4s 13 16 mph 1029.6mb 42f 33f
5:50 2.5ft 7s 4s 13 16 mph 1029.1mb 42f 33f
4:50 2.5ft 9s 4s 13 16 mph 1028.4mb 42f 34f
3:50 2ft 8s 4s 13 16 mph 1028.4mb 42f 34f
2:50 2ft 6s 4s 11 16 mph 1028.8mb 43f 34f
1:50 2ft 6s 4s 13 16 mph 1028.5mb 43f 33f
12:50 2ft 7s 5s 11 16 mph 1028.3mb 43f 33f
Dom 12/21 11:50 2ft 7s 4s 11 13 mph 1028.4mb 43f 34f
10:50 2ft 6s 4s 11 13 mph 1028.1mb 43f 34f
9:50 2ft 7s 4s 11 13 mph 1028.1mb 43f 34f
8:50 2ft 7s 4s 11 13 mph 1027.8mb 43f 34f
7:50 2ft 8s 5s 11 13 mph 1028mb 43f 34f
6:50 2ft 8s 5s 11 13 mph 1028.1mb 43f 34f
5:50 1.6ft 9s 4s 11 13 mph 1027.5mb 43f 34f
4:50 1.6ft 9s 5s 11 13 mph 1027.4mb 42f 34f
3:50 2ft 10s 5s 9 11 mph 1027mb 43f 33f
2:50 1.6ft 10s 4s 11 13 mph 1026.8mb 43f 33f
1:50 1.6ft 6s 4s 13 16 mph 1026.4mb 43f 31f
12:50 2ft 10s 4s 13 16 mph 1026.4mb 43f 30f
11:50 2ft 5s 4s 13 16 mph 1026.7mb 43f 29f
10:50 2ft 5s 4s 16 18 mph 1027.2mb 43f 28f
9:50 2ft 3s 4s 16 18 mph 1027.7mb 43f 28f
8:50 2ft 3s 4s 16 20 mph 1027.3mb 43f 27f
7:50 2ft 3s 4s 13 18 mph 1027.3mb 43f 25f
6:50 2ft 10s 4s 16 20 mph 1027.2mb 43f 26f
5:50 2ft 3s 4s 16 20 mph 1026.9mb 42f 26f
4:50 2.5ft 3s 4s 16 22 mph 1026.7mb 42f 26f
3:50 2.5ft 3s 3s 18 22 mph 1026.6mb 42f 25f